sensor_id;sensor_type;location;lat;lon;timestamp;pressure;altitude;pressure_sealevel;temperature;humidity
54262;BME280;40174;52.364;6.452;2023-04-09T00:00:17;102417.63;;;8.38;100.00
54262;BME280;40174;52.364;6.452;2023-04-09T00:02:44;102412.53;;;8.35;100.00
54262;BME280;40174;52.364;6.452;2023-04-09T00:05:10;102420.34;;;8.36;100.00
54262;BME280;40174;52.364;6.452;2023-04-09T00:07:36;102423.97;;;8.33;100.00
54262;BME280;40174;52.364;6.452;2023-04-09T00:10:03;102427.53;;;8.32;100.00
54262;BME280;40174;52.364;6.452;2023-04-09T00:12:30;102419.75;;;8.29;100.00
54262;BME280;40174;52.364;6.452;2023-04-09T00:14:57;102425.03;;;8.29;100.00
54262;BME280;40174;52.364;6.452;2023-04-09T00:17:24;102423.28;;;8.30;100.00
54262;BME280;40174;52.364;6.452;2023-04-09T00:19:50;102411.09;;;8.27;100.00
54262;BME280;40174;52.364;6.452;2023-04-09T00:22:17;102420.75;;;8.27;100.00
54262;BME280;40174;52.364;6.452;2023-04-09T00:24:43;102417.34;;;8.25;100.00
54262;BME280;40174;52.364;6.452;2023-04-09T00:27:10;102411.22;;;8.24;100.00
54262;BME280;40174;52.364;6.452;2023-04-09T00:29:36;102409.44;;;8.25;100.00
54262;BME280;40174;52.364;6.452;2023-04-09T00:32:05;102410.31;;;8.25;100.00
54262;BME280;40174;52.364;6.452;2023-04-09T00:34:31;102412.00;;;8.26;100.00
54262;BME280;40174;52.364;6.452;2023-04-09T00:36:58;102408.59;;;8.24;100.00
54262;BME280;40174;52.364;6.452;2023-04-09T00:39:25;102402.47;;;8.24;100.00
54262;BME280;40174;52.364;6.452;2023-04-09T00:41:54;102411.28;;;8.23;100.00
54262;BME280;40174;52.364;6.452;2023-04-09T00:44:21;102404.25;;;8.23;100.00
54262;BME280;40174;52.364;6.452;2023-04-09T00:46:48;102403.47;;;8.21;100.00
54262;BME280;40174;52.364;6.452;2023-04-09T00:49:15;102398.19;;;8.21;100.00
54262;BME280;40174;52.364;6.452;2023-04-09T00:51:42;102406.09;;;8.21;100.00
54262;BME280;40174;52.364;6.452;2023-04-09T00:54:09;102401.88;;;8.17;100.00
54262;BME280;40174;52.364;6.452;2023-04-09T00:56:35;102402.75;;;8.18;100.00
54262;BME280;40174;52.364;6.452;2023-04-09T00:59:02;102401.09;;;8.15;100.00
54262;BME280;40174;52.364;6.452;2023-04-09T01:01:28;102396.78;;;8.14;100.00
54262;BME280;40174;52.364;6.452;2023-04-09T01:03:55;102391.50;;;8.14;100.00
54262;BME280;40174;52.364;6.452;2023-04-09T01:06:25;102391.50;;;8.14;100.00
54262;BME280;40174;52.364;6.452;2023-04-09T01:08:54;102390.72;;;8.12;100.00
54262;BME280;40174;52.364;6.452;2023-04-09T01:11:27;102382.88;;;8.10;100.00
54262;BME280;40174;52.364;6.452;2023-04-09T01:13:58;102383.03;;;8.07;100.00
54262;BME280;40174;52.364;6.452;2023-04-09T01:16:27;102384.00;;;8.05;100.00
54262;BME280;40174;52.364;6.452;2023-04-09T01:18:55;102377.97;;;8.03;100.00
54262;BME280;40174;52.364;6.452;2023-04-09T01:21:27;102385.72;;;8.06;100.00
54262;BME280;40174;52.364;6.452;2023-04-09T01:23:57;102378.81;;;8.03;100.00
54262;BME280;40174;52.364;6.452;2023-04-09T01:26:37;102381.50;;;8.02;100.00
54262;BME280;40174;52.364;6.452;2023-04-09T01:29:08;102382.34;;;8.02;100.00
54262;BME280;40174;52.364;6.452;2023-04-09T01:31:35;102378.88;;;8.02;100.00
54262;BME280;40174;52.364;6.452;2023-04-09T01:34:02;102376.25;;;8.02;100.00
54262;BME280;40174;52.364;6.452;2023-04-09T01:43:27;102374.66;;;7.98;100.00
54262;BME280;40174;52.364;6.452;2023-04-09T01:45:56;102369.34;;;7.99;100.00
54262;BME280;40174;52.364;6.452;2023-04-09T01:48:25;102370.34;;;7.97;100.00
54262;BME280;40174;52.364;6.452;2023-04-09T01:50:52;102376.38;;;7.99;100.00
54262;BME280;40174;52.364;6.452;2023-04-09T01:53:19;102372.97;;;7.97;100.00
54262;BME280;40174;52.364;6.452;2023-04-09T01:55:46;102367.69;;;7.97;100.00
54262;BME280;40174;52.364;6.452;2023-04-09T01:58:13;102362.44;;;7.97;100.00
54262;BME280;40174;52.364;6.452;2023-04-09T02:00:43;102366.06;;;7.94;100.00
54262;BME280;40174;52.364;6.452;2023-04-09T02:03:13;102363.34;;;7.96;100.00
54262;BME280;40174;52.364;6.452;2023-04-09T02:05:43;102365.13;;;7.95;100.00
54262;BME280;40174;52.364;6.452;2023-04-09T02:08:11;102372.19;;;7.95;100.00
54262;BME280;40174;52.364;6.452;2023-04-09T02:10:40;102370.44;;;7.94;100.00
54262;BME280;40174;52.364;6.452;2023-04-09T02:13:08;102373.09;;;7.94;100.00
54262;BME280;40174;52.364;6.452;2023-04-09T02:15:38;102369.69;;;7.91;100.00
54262;BME280;40174;52.364;6.452;2023-04-09T02:18:10;102370.53;;;7.92;100.00
54262;BME280;40174;52.364;6.452;2023-04-09T02:20:46;102364.44;;;7.91;100.00
54262;BME280;40174;52.364;6.452;2023-04-09T02:23:14;102365.28;;;7.92;100.00
54262;BME280;40174;52.364;6.452;2023-04-09T02:25:40;102368.03;;;7.89;100.00
54262;BME280;40174;52.364;6.452;2023-04-09T02:28:07;102358.50;;;7.86;100.00
54262;BME280;40174;52.364;6.452;2023-04-09T02:30:33;102362.75;;;7.89;100.00
54262;BME280;40174;52.364;6.452;2023-04-09T02:32:59;102361.78;;;7.91;100.00
54262;BME280;40174;52.364;6.452;2023-04-09T02:35:26;102355.75;;;7.89;100.00
54262;BME280;40174;52.364;6.452;2023-04-09T02:37:54;102361.06;;;7.88;100.00
54262;BME280;40174;52.364;6.452;2023-04-09T02:40:20;102355.81;;;7.88;100.00
54262;BME280;40174;52.364;6.452;2023-04-09T02:42:47;102352.16;;;7.90;100.00
54262;BME280;40174;52.364;6.452;2023-04-09T02:45:13;102350.53;;;7.88;100.00
54262;BME280;40174;52.364;6.452;2023-04-09T02:47:40;102350.59;;;7.86;100.00
54262;BME280;40174;52.364;6.452;2023-04-09T02:50:07;102359.38;;;7.87;100.00
54262;BME280;40174;52.364;6.452;2023-04-09T02:52:35;102350.53;;;7.88;100.00
54262;BME280;40174;52.364;6.452;2023-04-09T02:55:04;102346.22;;;7.87;100.00
54262;BME280;40174;52.364;6.452;2023-04-09T02:57:30;102333.09;;;7.85;100.00
54262;BME280;40174;52.364;6.452;2023-04-09T02:59:57;102336.63;;;7.84;100.00
54262;BME280;40174;52.364;6.452;2023-04-09T03:02:24;102331.38;;;7.84;100.00
54262;BME280;40174;52.364;6.452;2023-04-09T03:04:50;102334.88;;;7.85;100.00
54262;BME280;40174;52.364;6.452;2023-04-09T03:07:17;102333.16;;;7.84;100.00
54262;BME280;40174;52.364;6.452;2023-04-09T03:09:44;102331.38;;;7.84;100.00
54262;BME280;40174;52.364;6.452;2023-04-09T03:12:12;102334.94;;;7.83;100.00
54262;BME280;40174;52.364;6.452;2023-04-09T03:14:38;102337.56;;;7.83;100.00
54262;BME280;40174;52.364;6.452;2023-04-09T03:17:04;102331.47;;;7.83;100.00
54262;BME280;40174;52.364;6.452;2023-04-09T03:19:31;102329.69;;;7.83;100.00
54262;BME280;40174;52.364;6.452;2023-04-09T03:21:57;102328.91;;;7.81;100.00
54262;BME280;40174;52.364;6.452;2023-04-09T03:24:26;102329.84;;;7.80;100.00
54262;BME280;40174;52.364;6.452;2023-04-09T03:26:57;102323.69;;;7.80;100.00
54262;BME280;40174;52.364;6.452;2023-04-09T03:29:26;102329.88;;;7.79;100.00
54262;BME280;40174;52.364;6.452;2023-04-09T03:31:52;102326.25;;;7.81;100.00
54262;BME280;40174;52.364;6.452;2023-04-09T03:34:19;102325.47;;;7.79;100.00
54262;BME280;40174;52.364;6.452;2023-04-09T03:36:49;102314.94;;;7.79;100.00
54262;BME280;40174;52.364;6.452;2023-04-09T03:39:23;102324.41;;;7.83;100.00
54262;BME280;40174;52.364;6.452;2023-04-09T03:41:49;102317.50;;;7.81;100.00
54262;BME280;40174;52.364;6.452;2023-04-09T03:44:17;102316.56;;;7.82;100.00
54262;BME280;40174;52.364;6.452;2023-04-09T03:47:14;102322.84;;;7.79;100.00
54262;BME280;40174;52.364;6.452;2023-04-09T03:49:40;102321.94;;;7.80;100.00
54262;BME280;40174;52.364;6.452;2023-04-09T03:52:21;102321.16;;;7.78;100.00
54262;BME280;40174;52.364;6.452;2023-04-09T03:54:56;102322.19;;;7.74;100.00
54262;BME280;40174;52.364;6.452;2023-04-09T03:57:24;102328.31;;;7.75;100.00
54262;BME280;40174;52.364;6.452;2023-04-09T03:59:52;102319.56;;;7.74;100.00
54262;BME280;40174;52.364;6.452;2023-04-09T04:02:22;102325.81;;;7.72;100.00
54262;BME280;40174;52.364;6.452;2023-04-09T04:04:58;102323.91;;;7.75;100.00
54262;BME280;40174;52.364;6.452;2023-04-09T04:07:31;102316.22;;;7.70;100.00
54262;BME280;40174;52.364;6.452;2023-04-09T04:10:04;102311.03;;;7.69;100.00
54262;BME280;40174;52.364;6.452;2023-04-09T04:12:31;102319.78;;;7.69;100.00
54262;BME280;40174;52.364;6.452;2023-04-09T04:15:08;102318.03;;;7.68;100.00
54262;BME280;40174;52.364;6.452;2023-04-09T04:17:42;102320.69;;;7.68;100.00
54262;BME280;40174;52.364;6.452;2023-04-09T04:20:27;102314.56;;;7.68;100.00
54262;BME280;40174;52.364;6.452;2023-04-09T04:22:59;102316.28;;;7.69;100.00
54262;BME280;40174;52.364;6.452;2023-04-09T04:25:28;102316.22;;;7.70;100.00
54262;BME280;40174;52.364;6.452;2023-04-09T04:27:55;102314.56;;;7.68;100.00
54262;BME280;40174;52.364;6.452;2023-04-09T04:30:27;102316.28;;;7.69;100.00
54262;BME280;40174;52.364;6.452;2023-04-09T04:33:00;102325.09;;;7.68;100.00
54262;BME280;40174;52.364;6.452;2023-04-09T04:35:33;102315.41;;;7.68;100.00
54262;BME280;40174;52.364;6.452;2023-04-09T04:38:02;102320.69;;;7.68;100.00
54262;BME280;40174;52.364;6.452;2023-04-09T04:40:30;102322.53;;;7.66;100.00
54262;BME280;40174;52.364;6.452;2023-04-09T04:42:59;102321.69;;;7.66;100.00
54262;BME280;40174;52.364;6.452;2023-04-09T04:45:26;102319.88;;;7.66;100.00
54262;BME280;40174;52.364;6.452;2023-04-09T04:48:00;102323.41;;;7.67;100.00
54262;BME280;40174;52.364;6.452;2023-04-09T04:50:27;102323.41;;;7.67;100.00
54262;BME280;40174;52.364;6.452;2023-04-09T04:52:58;102328.66;;;7.67;100.00
54262;BME280;40174;52.364;6.452;2023-04-09T04:55:29;102320.78;;;7.67;100.00
54262;BME280;40174;52.364;6.452;2023-04-09T04:57:59;102319.09;;;7.64;100.00
54262;BME280;40174;52.364;6.452;2023-04-09T05:00:29;102320.03;;;7.63;100.00
54262;BME280;40174;52.364;6.452;2023-04-09T05:03:01;102321.03;;;7.61;100.00
54262;BME280;40174;52.364;6.452;2023-04-09T05:05:50;102320.19;;;7.60;100.00
54262;BME280;40174;52.364;6.452;2023-04-09T05:08:17;102320.19;;;7.60;100.00
54262;BME280;40174;52.364;6.452;2023-04-09T05:10:47;102318.41;;;7.61;100.00
54262;BME280;40174;52.364;6.452;2023-04-09T05:13:15;102319.19;;;7.63;100.00
54262;BME280;40174;52.364;6.452;2023-04-09T05:15:41;102322.72;;;7.62;100.00
54262;BME280;40174;52.364;6.452;2023-04-09T05:18:10;102320.19;;;7.60;100.00
54262;BME280;40174;52.364;6.452;2023-04-09T05:20:38;102314.03;;;7.60;100.00
54262;BME280;40174;52.364;6.452;2023-04-09T05:23:06;102328.00;;;7.62;100.00
54262;BME280;40174;52.364;6.452;2023-04-09T05:25:38;102325.50;;;7.59;100.00
54262;BME280;40174;52.364;6.452;2023-04-09T05:28:10;102317.63;;;7.59;100.00
54262;BME280;40174;52.364;6.452;2023-04-09T05:30:40;102327.28;;;7.58;100.00
54262;BME280;40174;52.364;6.452;2023-04-09T05:33:07;102323.88;;;7.56;100.00
54262;BME280;40174;52.364;6.452;2023-04-09T05:35:38;102321.03;;;7.61;100.00
54262;BME280;40174;52.364;6.452;2023-04-09T05:38:04;102322.94;;;7.57;100.00
54262;BME280;40174;52.364;6.452;2023-04-09T05:40:31;102328.41;;;7.53;100.00
54262;BME280;40174;52.364;6.452;2023-04-09T05:42:59;102328.53;;;7.49;100.00
54262;BME280;40174;52.364;6.452;2023-04-09T05:45:35;102327.69;;;7.49;100.00
54262;BME280;40174;52.364;6.452;2023-04-09T05:48:02;102328.66;;;7.46;100.00
54262;BME280;40174;52.364;6.452;2023-04-09T05:50:28;102326.97;;;7.45;100.00
54262;BME280;40174;52.364;6.452;2023-04-09T05:52:56;102327.81;;;7.46;100.00
54262;BME280;40174;52.364;6.452;2023-04-09T05:55:30;102336.56;;;7.46;100.00
54262;BME280;40174;52.364;6.452;2023-04-09T05:57:59;102325.31;;;7.43;100.00
54262;BME280;40174;52.364;6.452;2023-04-09T06:00:25;102326.31;;;7.40;100.00
54262;BME280;40174;52.364;6.452;2023-04-09T06:02:52;102335.09;;;7.39;100.00
54262;BME280;40174;52.364;6.452;2023-04-09T06:05:18;102329.06;;;7.37;100.00
54262;BME280;40174;52.364;6.452;2023-04-09T06:07:46;102334.13;;;7.42;100.00
54262;BME280;40174;52.364;6.452;2023-04-09T06:10:14;102325.72;;;7.34;100.00
54262;BME280;40174;52.364;6.452;2023-04-09T06:12:40;102333.81;;;7.29;100.00
54262;BME280;40174;52.364;6.452;2023-04-09T06:15:08;102333.06;;;7.25;100.00
54262;BME280;40174;52.364;6.452;2023-04-09T06:17:34;102334.66;;;7.29;100.00
54262;BME280;40174;52.364;6.452;2023-04-09T06:20:00;102339.91;;;7.29;100.00
54262;BME280;40174;52.364;6.452;2023-04-09T06:22:27;102340.97;;;7.25;100.00
54262;BME280;40174;52.364;6.452;2023-04-09T06:24:54;102343.59;;;7.25;100.00
54262;BME280;40174;52.364;6.452;2023-04-09T06:27:22;102345.38;;;7.25;100.00
54262;BME280;40174;52.364;6.452;2023-04-09T06:29:48;102348.00;;;7.25;100.00
54262;BME280;40174;52.364;6.452;2023-04-09T06:32:15;102340.81;;;7.28;100.00
54262;BME280;40174;52.364;6.452;2023-04-09T06:34:41;102349.50;;;7.31;100.00
54262;BME280;40174;52.364;6.452;2023-04-09T06:37:08;102338.19;;;7.28;100.00
54262;BME280;40174;52.364;6.452;2023-04-09T06:39:34;102338.97;;;7.31;100.00
54262;BME280;40174;52.364;6.452;2023-04-09T06:42:00;102348.53;;;7.33;100.00
54262;BME280;40174;52.364;6.452;2023-04-09T06:44:48;102346.03;;;7.30;100.00
54262;BME280;40174;52.364;6.452;2023-04-09T06:47:14;102351.03;;;7.36;100.00
54262;BME280;40174;52.364;6.452;2023-04-09T06:49:41;102347.63;;;7.34;100.00
54262;BME280;40174;52.364;6.452;2023-04-09T06:52:07;102341.50;;;7.34;100.00
54262;BME280;40174;52.364;6.452;2023-04-09T06:54:34;102344.72;;;7.40;100.00
54262;BME280;40174;52.364;6.452;2023-04-09T06:57:00;102351.69;;;7.41;100.00
54262;BME280;40174;52.364;6.452;2023-04-09T06:59:26;102341.22;;;7.40;100.00
54262;BME280;40174;52.364;6.452;2023-04-09T07:01:54;102335.00;;;7.42;100.00
54262;BME280;40174;52.364;6.452;2023-04-09T07:04:20;102343.59;;;7.46;100.00
54262;BME280;40174;52.364;6.452;2023-04-09T07:06:47;102349.69;;;7.46;100.00
54262;BME280;40174;52.364;6.452;2023-04-09T07:09:13;102341.56;;;7.53;100.00
54262;BME280;40174;52.364;6.452;2023-04-09T07:11:41;102354.50;;;7.57;100.00
54262;BME280;40174;52.364;6.452;2023-04-09T07:14:08;102346.50;;;7.60;100.00
54262;BME280;40174;52.364;6.452;2023-04-09T07:16:34;102351.56;;;7.65;100.00
54262;BME280;40174;52.364;6.452;2023-04-09T07:19:02;102337.53;;;7.64;100.00
54262;BME280;40174;52.364;6.452;2023-04-09T07:21:30;102347.00;;;7.68;100.00
54262;BME280;40174;52.364;6.452;2023-04-09T07:23:56;102349.44;;;7.73;100.00
54262;BME280;40174;52.364;6.452;2023-04-09T07:26:23;102358.84;;;7.79;100.00
54262;BME280;40174;52.364;6.452;2023-04-09T07:28:49;102347.38;;;7.80;100.00
54262;BME280;40174;52.364;6.452;2023-04-09T07:31:15;102347.16;;;7.84;100.00
54262;BME280;40174;52.364;6.452;2023-04-09T07:33:42;102355.75;;;7.89;100.00
54262;BME280;40174;52.364;6.452;2023-04-09T07:36:10;102351.13;;;7.95;100.00
54262;BME280;40174;52.364;6.452;2023-04-09T07:38:36;102355.44;;;7.96;100.00
54262;BME280;40174;52.364;6.452;2023-04-09T07:41:03;102353.38;;;8.02;100.00
54262;BME280;40174;52.364;6.452;2023-04-09T07:43:29;102356.69;;;8.07;100.00
54262;BME280;40174;52.364;6.452;2023-04-09T07:45:56;102358.97;;;8.15;100.00
54262;BME280;40174;52.364;6.452;2023-04-09T07:48:22;102356.13;;;8.20;100.00
54262;BME280;40174;52.364;6.452;2023-04-09T07:50:49;102362.16;;;8.22;100.00
54262;BME280;40174;52.364;6.452;2023-04-09T07:53:17;102359.16;;;8.29;100.00
54262;BME280;40174;52.364;6.452;2023-04-09T07:55:43;102358.03;;;8.35;100.00
54262;BME280;40174;52.364;6.452;2023-04-09T07:58:09;102362.06;;;8.44;100.00
54262;BME280;40174;52.364;6.452;2023-04-09T08:00:36;102359.16;;;8.50;100.00
54262;BME280;40174;52.364;6.452;2023-04-09T08:03:02;102365.03;;;8.55;100.00
54262;BME280;40174;52.364;6.452;2023-04-09T08:05:29;102354.22;;;8.61;100.00
54262;BME280;40174;52.364;6.452;2023-04-09T08:07:55;102359.03;;;8.70;100.00
54262;BME280;40174;52.364;6.452;2023-04-09T08:10:23;102358.38;;;8.84;100.00
54262;BME280;40174;52.364;6.452;2023-04-09T08:12:49;102353.09;;;8.84;100.00
54262;BME280;40174;52.364;6.452;2023-04-09T08:15:16;102365.06;;;8.91;100.00
54262;BME280;40174;52.364;6.452;2023-04-09T08:17:42;102364.06;;;9.11;100.00
54262;BME280;40174;52.364;6.452;2023-04-09T08:20:10;102355.00;;;9.17;100.00
54262;BME280;40174;52.364;6.452;2023-04-09T08:22:36;102353.66;;;9.26;100.00
54262;BME280;40174;52.364;6.452;2023-04-09T08:25:05;102363.44;;;9.41;100.00
54262;BME280;40174;52.364;6.452;2023-04-09T08:27:33;102354.75;;;9.56;100.00
54262;BME280;40174;52.364;6.452;2023-04-09T08:30:01;102363.75;;;9.70;100.00
54262;BME280;40174;52.364;6.452;2023-04-09T08:32:27;102364.88;;;9.82;100.00
54262;BME280;40174;52.364;6.452;2023-04-09T08:34:54;102365.94;;;9.95;100.00
54262;BME280;40174;52.364;6.452;2023-04-09T08:37:20;102370.56;;;10.07;100.00
54262;BME280;40174;52.364;6.452;2023-04-09T08:39:47;102372.53;;;10.19;100.00
54262;BME280;40174;52.364;6.452;2023-04-09T08:42:13;102361.81;;;10.23;100.00
54262;BME280;40174;52.364;6.452;2023-04-09T08:44:41;102361.50;;;10.29;100.00
54262;BME280;40174;52.364;6.452;2023-04-09T08:47:08;102363.56;;;10.39;100.00
54262;BME280;40174;52.364;6.452;2023-04-09T08:49:37;102365.19;;;10.58;100.00
54262;BME280;40174;52.364;6.452;2023-04-09T08:52:04;102365.59;;;10.82;100.00
54262;BME280;40174;52.364;6.452;2023-04-09T08:54:31;102361.88;;;11.00;100.00
54262;BME280;40174;52.364;6.452;2023-04-09T08:56:58;102360.22;;;11.14;100.00
54262;BME280;40174;52.364;6.452;2023-04-09T08:59:24;102362.06;;;11.28;100.00
54262;BME280;40174;52.364;6.452;2023-04-09T09:04:43;102361.84;;;11.47;100.00
54262;BME280;40174;52.364;6.452;2023-04-09T09:07:11;102367.63;;;11.53;100.00
54262;BME280;40174;52.364;6.452;2023-04-09T09:09:48;102354.59;;;11.64;100.00
54262;BME280;40174;52.364;6.452;2023-04-09T09:12:29;102354.97;;;11.87;100.00
54262;BME280;40174;52.364;6.452;2023-04-09T09:14:56;102352.63;;;11.97;100.00
54262;BME280;40174;52.364;6.452;2023-04-09T09:17:22;102355.38;;;12.10;100.00
54262;BME280;40174;52.364;6.452;2023-04-09T09:19:50;102355.28;;;12.11;100.00
54262;BME280;40174;52.364;6.452;2023-04-09T09:22:16;102351.97;;;12.22;100.00
54262;BME280;40174;52.364;6.452;2023-04-09T09:24:46;102347.78;;;12.32;100.00
54262;BME280;40174;52.364;6.452;2023-04-09T09:27:18;102356.56;;;12.47;97.46
54262;BME280;40174;52.364;6.452;2023-04-09T09:29:56;102345.06;;;12.61;94.44
54262;BME280;40174;52.364;6.452;2023-04-09T09:32:22;102347.88;;;12.72;93.54
54262;BME280;40174;52.364;6.452;2023-04-09T09:34:57;102346.94;;;12.86;95.37
54262;BME280;40174;52.364;6.452;2023-04-09T09:37:24;102342.13;;;13.05;94.75
54262;BME280;40174;52.364;6.452;2023-04-09T09:39:51;102339.28;;;13.21;93.64
54262;BME280;40174;52.364;6.452;2023-04-09T09:42:17;102339.47;;;13.18;89.13
54262;BME280;40174;52.364;6.452;2023-04-09T09:44:44;102341.19;;;13.19;86.49
54262;BME280;40174;52.364;6.452;2023-04-09T09:47:10;102337.22;;;13.39;89.85
54262;BME280;40174;52.364;6.452;2023-04-09T09:49:37;102337.34;;;13.50;90.02
54262;BME280;40174;52.364;6.452;2023-04-09T09:52:05;102342.00;;;13.60;88.68
54262;BME280;40174;52.364;6.452;2023-04-09T09:54:35;102340.72;;;13.65;86.50
54262;BME280;40174;52.364;6.452;2023-04-09T09:57:05;102335.97;;;13.58;88.50
54262;BME280;40174;52.364;6.452;2023-04-09T09:59:33;102330.50;;;13.34;82.62
54262;BME280;40174;52.364;6.452;2023-04-09T10:02:03;102334.91;;;13.20;84.36
54262;BME280;40174;52.364;6.452;2023-04-09T10:04:32;102331.81;;;13.41;86.87
54262;BME280;40174;52.364;6.452;2023-04-09T10:06:58;102330.88;;;13.55;86.57
54262;BME280;40174;52.364;6.452;2023-04-09T10:09:29;102337.13;;;13.41;82.71
54262;BME280;40174;52.364;6.452;2023-04-09T10:11:56;102324.69;;;13.41;80.94
54262;BME280;40174;52.364;6.452;2023-04-09T10:14:23;102327.16;;;13.57;79.11
54262;BME280;40174;52.364;6.452;2023-04-09T10:16:51;102327.25;;;13.81;80.11
54262;BME280;40174;52.364;6.452;2023-04-09T10:19:17;102324.69;;;13.92;77.80
54262;BME280;40174;52.364;6.452;2023-04-09T10:21:46;102323.25;;;14.12;75.35
54262;BME280;40174;52.364;6.452;2023-04-09T10:24:17;102316.56;;;14.07;75.81
54262;BME280;40174;52.364;6.452;2023-04-09T10:26:45;102317.97;;;14.00;79.13
54262;BME280;40174;52.364;6.452;2023-04-09T10:29:12;102311.81;;;13.86;74.34
54262;BME280;40174;52.364;6.452;2023-04-09T10:31:44;102310.28;;;14.08;74.79
54262;BME280;40174;52.364;6.452;2023-04-09T10:34:10;102312.53;;;14.38;75.74
54262;BME280;40174;52.364;6.452;2023-04-09T10:36:41;102318.34;;;14.43;71.70
54262;BME280;40174;52.364;6.452;2023-04-09T10:39:10;102323.88;;;14.16;71.56
54262;BME280;40174;52.364;6.452;2023-04-09T10:41:37;102308.16;;;14.13;69.65
54262;BME280;40174;52.364;6.452;2023-04-09T10:44:06;102311.75;;;14.12;69.97
54262;BME280;40174;52.364;6.452;2023-04-09T10:46:44;102300.72;;;14.05;71.93
54262;BME280;40174;52.364;6.452;2023-04-09T10:49:11;102301.41;;;14.20;72.33
54262;BME280;40174;52.364;6.452;2023-04-09T10:51:40;102297.22;;;14.42;69.92
54262;BME280;40174;52.364;6.452;2023-04-09T10:59:34;102292.16;;;14.98;66.57
54262;BME280;40174;52.364;6.452;2023-04-09T11:02:01;102278.25;;;15.06;66.44
54262;BME280;40174;52.364;6.452;2023-04-09T11:04:34;102282.28;;;15.11;65.69
54262;BME280;40174;52.364;6.452;2023-04-09T11:07:04;102285.38;;;14.94;63.16
54262;BME280;40174;52.364;6.452;2023-04-09T11:09:33;102284.13;;;14.87;64.27
54262;BME280;40174;52.364;6.452;2023-04-09T11:11:59;102282.66;;;14.83;64.68
54262;BME280;40174;52.364;6.452;2023-04-09T11:14:26;102280.31;;;15.02;63.82
54262;BME280;40174;52.364;6.452;2023-04-09T11:16:53;102281.78;;;15.17;64.30
54262;BME280;40174;52.364;6.452;2023-04-09T11:19:20;102275.53;;;15.52;64.05
54262;BME280;40174;52.364;6.452;2023-04-09T11:21:47;102283.31;;;15.78;63.56
54262;BME280;40174;52.364;6.452;2023-04-09T11:24:13;102276.16;;;16.01;62.42
54262;BME280;40174;52.364;6.452;2023-04-09T11:26:40;102275.25;;;16.12;62.26
54262;BME280;40174;52.364;6.452;2023-04-09T11:29:06;102272.16;;;15.84;58.88
54262;BME280;40174;52.364;6.452;2023-04-09T11:31:33;102266.47;;;15.77;59.76
54262;BME280;40174;52.364;6.452;2023-04-09T11:34:01;102271.06;;;15.75;60.68
54262;BME280;40174;52.364;6.452;2023-04-09T11:36:28;102260.19;;;15.90;57.86
54262;BME280;40174;52.364;6.452;2023-04-09T11:38:54;102264.97;;;16.07;59.03
54262;BME280;40174;52.364;6.452;2023-04-09T11:41:31;102261.41;;;16.29;58.80
54262;BME280;40174;52.364;6.452;2023-04-09T11:43:58;102260.88;;;16.14;57.84
54262;BME280;40174;52.364;6.452;2023-04-09T11:46:24;102265.47;;;16.12;59.26
54262;BME280;40174;52.364;6.452;2023-04-09T11:48:51;102256.63;;;16.00;55.77
54262;BME280;40174;52.364;6.452;2023-04-09T11:51:20;102255.50;;;16.26;56.33
54262;BME280;40174;52.364;6.452;2023-04-09T11:53:46;102249.91;;;16.29;53.08
54262;BME280;40174;52.364;6.452;2023-04-09T11:56:13;102248.13;;;16.50;55.99
54262;BME280;40174;52.364;6.452;2023-04-09T11:58:43;102250.56;;;16.74;55.60
54262;BME280;40174;52.364;6.452;2023-04-09T12:01:11;102257.63;;;16.96;53.08
54262;BME280;40174;52.364;6.452;2023-04-09T12:03:37;102248.44;;;16.89;50.42
54262;BME280;40174;52.364;6.452;2023-04-09T12:06:04;102255.88;;;17.07;49.03
54262;BME280;40174;52.364;6.452;2023-04-09T12:08:34;102252.75;;;17.22;50.54
54262;BME280;40174;52.364;6.452;2023-04-09T12:11:07;102247.91;;;17.16;51.26
54262;BME280;40174;52.364;6.452;2023-04-09T12:13:34;102248.97;;;17.04;52.24
54262;BME280;40174;52.364;6.452;2023-04-09T12:16:01;102247.19;;;17.14;50.91
54262;BME280;40174;52.364;6.452;2023-04-09T12:18:27;102255.75;;;17.39;50.60
54262;BME280;40174;52.364;6.452;2023-04-09T12:20:54;102249.50;;;17.50;50.91
54262;BME280;40174;52.364;6.452;2023-04-09T12:23:20;102249.28;;;17.32;51.50
54262;BME280;40174;52.364;6.452;2023-04-09T12:25:48;102252.25;;;17.17;50.01
54262;BME280;40174;52.364;6.452;2023-04-09T12:28:15;102249.69;;;17.58;51.72
54262;BME280;40174;52.364;6.452;2023-04-09T12:30:42;102247.47;;;17.73;50.05
54262;BME280;40174;52.364;6.452;2023-04-09T12:33:09;102245.16;;;17.58;48.26
54262;BME280;40174;52.364;6.452;2023-04-09T12:35:35;102258.75;;;17.76;49.01
54262;BME280;40174;52.364;6.452;2023-04-09T12:38:02;102253.75;;;18.02;47.96
54262;BME280;40174;52.364;6.452;2023-04-09T12:40:29;102244.47;;;17.97;48.29
54262;BME280;40174;52.364;6.452;2023-04-09T12:42:57;102239.53;;;18.02;46.22
54262;BME280;40174;52.364;6.452;2023-04-09T12:45:24;102244.22;;;18.19;46.47
54262;BME280;40174;52.364;6.452;2023-04-09T12:47:51;102241.97;;;18.24;45.27
54262;BME280;40174;52.364;6.452;2023-04-09T12:50:18;102249.16;;;18.24;46.20
54262;BME280;40174;52.364;6.452;2023-04-09T12:52:44;102239.41;;;18.13;47.02
54262;BME280;40174;52.364;6.452;2023-04-09T12:55:11;102227.53;;;17.86;45.05
54262;BME280;40174;52.364;6.452;2023-04-09T12:57:38;102225.50;;;17.69;47.37
54262;BME280;40174;52.364;6.452;2023-04-09T13:00:07;102222.19;;;17.86;46.39
54262;BME280;40174;52.364;6.452;2023-04-09T13:02:34;102217.03;;;18.04;46.44
54262;BME280;40174;52.364;6.452;2023-04-09T13:05:01;102226.63;;;18.26;46.42
54262;BME280;40174;52.364;6.452;2023-04-09T13:07:28;102217.88;;;18.54;47.01
54262;BME280;40174;52.364;6.452;2023-04-09T13:09:54;102219.72;;;18.53;45.13